Bauerfield Efate, Vanuatu
Current Conditions -  °F | °C
As of 3:00 PM on Saturday 20 Dec 2014 (Local Time) from NVVV Reporting Station
Rain Showers Rain Showers  
Wind Chill: 81°   Ceiling: 4000
Heat Index: 88°   Visibility: 6mi
Dew Point: 79°   Wind: 3mph
Humidity: 94%   Direction: NA
Pressure: 29.74"   Gusts: NA
Location:  17.7°S, 168.3°E
Report Text: NVVV 200400Z VRB03KT 9999 -SHRA FEW015 SCT020 BKN040 27/26 Q1007 RMK NIL
Loading
Personal Weather Stations






























Interactive Weather Map New forecast layout! Learn more

10-Day Weather Forecast

Advertisements
Track Severe Weather on mobile